Wednesday, September 17, 2014
21:39 UTC
  |  Log In   |  Register Free
Airport Search:

Richmond Municipal Airport
(KRID)

Richmond Municipal Airport Diagram
No Airport Diagram Available

FAA data valid effective July 24, 2014 until September 18, 2014 (unless otherwise noted).

 
 
 
 
 
 
 
 
 
 
 
 
 
 

Current Aviation Weather for Richmond Municipal Airport (KRID)

METAR data is unavailable for RID. The nearest METAR location is at KMWO (24.7 nm SE from RID).

The most recent METAR observation for KMWO was updated at: 2116
METAR Summary (Translated METAR)
KMWO
172055Z AUTO 25004KT 10SM CLR 21/09 A3002 RMK AO2 T02080089
(24.7 nm SE from KRID)
KHAO
172053Z AUTO VRB06KT 10SM FEW040 19/10 A3002 RMK AO2 SLP164 T01940100 56014
(27.9 nm SE from KRID)
TAF Summary (Translated TAF)
KDAY
(23.7 nm NE from KMWO)
171723Z 1718/1818 VRB03KT P6SM BKN035 FM172300 VRB03KT P6SM SCT100 FM181400 04007KT P6SM SCT040
  Airport Weather Conditions for KRID

Current weather conditions are
not available for RID


The nearest NOAA weather station
is at MWO, (24.7 nm SE from RID)
  
 Current Weather at MWO
69° F
Fair
North winds at 0.0 mph
MWO NOAA Radar

Pressure: 30.02 in
Humidity: 47%
Wind: Calm
Dew Point: 48.4°F
Visibility: 10.00 mi


Airport Weather Forecast for KRID

Translated METAR and TAF for KMWO
Translated METAR for KMWO (2134 UTC 17 September 2014)
found at http://aviationweather.gov/adds/metars/
 
METAR text: KMWO 172115Z AUTO 00000KT 10SM SCT041 20/08 A3003 RMK AO2 T01990082
Conditions at: KMWO (MIDDLETOWN/HOOK , OH, US) observed 2115 UTC 17 September 2014
Temperature: 19.9°C (68°F)
Dewpoint: 8.2°C (47°F) [RH = 47%]
Pressure (altimeter): 30.03 inches Hg (1017.0 mb)
Winds: calm
Visibility: 10 or more miles (16+ km)
Ceiling: at least 12,000 feet AGL
Clouds: scattered clouds at 4100 feet AGL
Weather: automated observation with no human augmentation;
there may or may not be significant weather present at this time
Translated TAF for KMWO

There is no translated TAF available for this airport

Find All Airport Services Find A Hotel Find A Rental Car Find A Golf Course Find A Restaurant $100 Hamburger



FBO's on the Field
FBO Company Facility Photos Services Transportation Aviation Fuel Prices: Prices include tax
Catering Weather Repair Courtesy Rental Type 100LL JetA JetA+ MOGAS 8087
 
Richmond Municipal Airport

This FBO has not yet been rated
FS:Phillips66
Last Updated: Aug-27
Login to update fuel prices
SS:
Contact Richmond Municipal AirportMore FBO Information
 
Add another FBO Facility Photos Catering Weather Repair Courtesy Rental Type 100LL JetA JetA+ MOGAS 8087
Services Transportation Aviation Fuel Prices: Prices include tax


model-print
model-print
model-print
model-print